createdAt,value
2018-06-14T00:00:44.938Z,14.80
2018-06-14T00:03:12.105Z,14.90
2018-06-14T00:05:39.248Z,14.90
2018-06-14T00:08:06.485Z,14.90
2018-06-14T00:10:33.622Z,14.80
2018-06-14T00:13:00.756Z,14.80
2018-06-14T00:15:27.882Z,14.80
2018-06-14T00:17:54.989Z,14.80
2018-06-14T00:20:22.086Z,14.90
2018-06-14T00:22:49.205Z,15.00
2018-06-14T00:25:16.349Z,15.00
2018-06-14T00:27:43.509Z,15.00
2018-06-14T00:30:10.706Z,15.10
2018-06-14T00:32:37.942Z,15.10
2018-06-14T00:35:05.076Z,15.10
2018-06-14T00:37:32.927Z,15.00
2018-06-14T00:40:00.072Z,14.90
2018-06-14T00:42:27.202Z,14.80
2018-06-14T00:44:54.297Z,14.80
2018-06-14T00:47:21.654Z,14.80
2018-06-14T00:49:49.014Z,14.70
2018-06-14T00:52:16.146Z,14.70
2018-06-14T00:54:43.294Z,14.70
2018-06-14T00:57:22.286Z,14.60
2018-06-14T00:59:49.749Z,14.50
2018-06-14T01:02:16.970Z,14.50
2018-06-14T01:04:44.111Z,14.40
2018-06-14T01:07:11.264Z,14.40
2018-06-14T01:12:05.775Z,14.30
2018-06-14T01:14:32.890Z,14.20
2018-06-14T01:17:00.029Z,14.10
2018-06-14T01:19:27.138Z,14.00
2018-06-14T01:21:54.270Z,13.90
2018-06-14T01:24:21.358Z,13.90
2018-06-14T01:26:48.502Z,13.80
2018-06-14T01:29:16.062Z,13.70
2018-06-14T01:31:43.198Z,13.60
2018-06-14T01:34:10.396Z,13.60
2018-06-14T01:36:37.514Z,13.40
2018-06-14T01:39:07.198Z,13.30
2018-06-14T01:41:34.302Z,13.20
2018-06-14T01:44:01.419Z,13.20
2018-06-14T01:46:28.551Z,13.20
2018-06-14T01:48:55.663Z,13.20
2018-06-14T01:51:22.792Z,13.20
2018-06-14T01:53:49.931Z,13.20
2018-06-14T01:56:17.058Z,13.20
2018-06-14T01:58:44.226Z,13.10
2018-06-14T02:01:11.433Z,13.10
2018-06-14T02:03:38.591Z,13.20
2018-06-14T02:06:05.711Z,13.10
2018-06-14T02:08:32.802Z,13.00
2018-06-14T02:10:59.966Z,13.00
2018-06-14T02:13:27.061Z,13.00
2018-06-14T02:15:54.166Z,13.00
2018-06-14T02:18:21.946Z,13.00
2018-06-14T02:20:49.435Z,13.00
2018-06-14T02:23:16.530Z,12.90
2018-06-14T02:25:43.668Z,12.80
2018-06-14T02:28:10.849Z,12.70
2018-06-14T02:30:38.542Z,12.60
2018-06-14T02:33:06.234Z,12.50
2018-06-14T02:35:33.328Z,12.40
2018-06-14T02:38:00.419Z,12.30
2018-06-14T02:40:27.516Z,12.20
2018-06-14T02:42:54.878Z,12.10
2018-06-14T02:45:21.966Z,12.00
2018-06-14T02:47:49.128Z,12.00
2018-06-14T02:50:16.238Z,12.00
2018-06-14T02:52:43.487Z,11.90
2018-06-14T02:55:10.656Z,11.90
2018-06-14T02:57:38.103Z,11.80
2018-06-14T03:00:05.799Z,11.80
2018-06-14T03:02:32.931Z,11.80
2018-06-14T03:05:00.083Z,11.80
2018-06-14T03:07:32.983Z,11.70
2018-06-14T03:10:00.741Z,11.60
2018-06-14T03:12:27.842Z,11.60
2018-06-14T03:14:54.981Z,11.60
2018-06-14T03:17:22.143Z,11.60
2018-06-14T03:19:50.830Z,11.50
2018-06-14T03:22:18.740Z,11.50
2018-06-14T03:24:45.866Z,11.50
2018-06-14T03:27:13.142Z,11.50
2018-06-14T03:29:40.615Z,11.50
2018-06-14T03:32:07.735Z,11.60
2018-06-14T03:34:35.143Z,11.60
2018-06-14T03:37:03.011Z,11.70
2018-06-14T03:39:30.115Z,11.70
2018-06-14T03:41:58.235Z,11.80
2018-06-14T03:44:25.556Z,11.80
2018-06-14T03:46:52.653Z,11.90
2018-06-14T03:49:19.742Z,12.00
2018-06-14T03:51:46.854Z,12.10
2018-06-14T03:54:13.975Z,12.20
2018-06-14T03:56:41.318Z,12.20
2018-06-14T03:59:08.435Z,12.30
2018-06-14T04:01:35.569Z,12.40
2018-06-14T04:04:02.716Z,12.50
2018-06-14T04:06:29.995Z,12.60
2018-06-14T04:08:57.127Z,12.60
2018-06-14T04:11:24.223Z,12.70
2018-06-14T04:13:51.635Z,12.80
2018-06-14T04:18:46.323Z,13.00
2018-06-14T04:21:13.815Z,13.10
2018-06-14T04:23:40.938Z,13.20
2018-06-14T04:26:08.387Z,13.40
2018-06-14T04:28:35.478Z,13.60
2018-06-14T04:31:02.586Z,13.90
2018-06-14T04:33:29.687Z,14.10
2018-06-14T04:35:56.778Z,14.30
2018-06-14T04:38:23.883Z,14.50
2018-06-14T04:40:51.103Z,14.50
2018-06-14T04:43:18.211Z,14.80
2018-06-14T04:45:45.380Z,14.90
2018-06-14T04:48:12.706Z,15.20
2018-06-14T04:50:39.953Z,15.50
2018-06-14T04:53:07.058Z,15.60
2018-06-14T04:55:34.150Z,15.80
2018-06-14T04:58:01.250Z,15.90
2018-06-14T05:00:28.359Z,16.80
2018-06-14T05:02:55.478Z,17.50
2018-06-14T05:05:22.616Z,17.70
2018-06-14T05:07:49.726Z,18.20
2018-06-14T05:10:16.823Z,18.70
2018-06-14T05:12:44.023Z,19.00
2018-06-14T05:15:11.210Z,19.40
2018-06-14T05:17:38.308Z,20.20
2018-06-14T05:20:05.791Z,20.10
2018-06-14T05:22:33.178Z,21.00
2018-06-14T05:25:00.278Z,22.50
2018-06-14T05:27:27.374Z,23.00
2018-06-14T05:29:54.843Z,24.20
2018-06-14T05:32:22.242Z,24.70
2018-06-14T05:34:49.363Z,24.90
2018-06-14T05:37:16.491Z,26.30
2018-06-14T05:39:43.663Z,26.50
2018-06-14T05:42:10.931Z,25.70
2018-06-14T05:44:38.300Z,26.00
2018-06-14T05:47:05.391Z,26.40
2018-06-14T05:49:32.474Z,27.70
2018-06-14T05:51:59.727Z,28.20
2018-06-14T05:54:26.826Z,27.80
2018-06-14T05:56:54.239Z,28.20
2018-06-14T05:59:21.433Z,27.70
2018-06-14T06:01:48.576Z,28.50
2018-06-14T06:04:15.906Z,29.50
2018-06-14T06:06:43.211Z,29.90
2018-06-14T06:09:11.366Z,30.90
2018-06-14T06:11:39.029Z,31.70
2018-06-14T06:14:06.158Z,31.90
2018-06-14T06:16:33.275Z,32.70
2018-06-14T06:19:00.377Z,32.50
2018-06-14T06:21:27.490Z,32.90
2018-06-14T06:23:54.599Z,34.00
2018-06-14T06:26:21.718Z,33.60
2018-06-14T06:28:48.807Z,33.30
2018-06-14T06:31:16.519Z,34.20
2018-06-14T06:33:43.684Z,34.20
2018-06-14T06:36:11.123Z,33.90
2018-06-14T06:38:38.284Z,33.90
2018-06-14T06:41:05.482Z,33.70
2018-06-14T06:43:32.617Z,34.10
2018-06-14T06:45:59.736Z,34.40
2018-06-14T06:48:26.835Z,35.40
2018-06-14T06:50:53.946Z,35.50
2018-06-14T06:53:21.221Z,35.60
2018-06-14T06:55:48.335Z,36.10
2018-06-14T06:58:15.658Z,34.80
2018-06-14T07:00:42.807Z,34.80
2018-06-14T07:03:10.682Z,35.80
2018-06-14T07:05:38.053Z,36.60
2018-06-14T07:08:05.186Z,37.30
2018-06-14T07:10:32.450Z,37.90
2018-06-14T07:12:59.822Z,37.90
2018-06-14T07:15:26.913Z,38.20
2018-06-14T07:17:54.355Z,37.60
2018-06-14T07:20:21.465Z,39.20
2018-06-14T07:22:48.566Z,38.20
2018-06-14T07:25:15.703Z,38.40
2018-06-14T07:27:42.872Z,39.90
2018-06-14T07:30:10.019Z,40.10
2018-06-14T07:32:37.443Z,40.40
2018-06-14T07:35:04.588Z,42.00
2018-06-14T07:37:32.274Z,41.40
2018-06-14T07:39:59.386Z,40.60
2018-06-14T07:42:26.516Z,40.60
2018-06-14T07:44:53.638Z,40.30
2018-06-14T07:47:20.740Z,40.00
2018-06-14T07:49:47.887Z,40.10
2018-06-14T07:52:15.060Z,40.20
2018-06-14T07:54:42.306Z,41.00
2018-06-14T07:57:09.544Z,40.50
2018-06-14T07:59:36.639Z,41.00
2018-06-14T08:02:03.783Z,41.50
2018-06-14T08:04:30.891Z,40.90
2018-06-14T08:06:58.003Z,41.40
2018-06-14T08:09:25.115Z,41.10
2018-06-14T08:11:52.220Z,41.10
2018-06-14T08:14:19.354Z,40.60
2018-06-14T08:16:46.461Z,40.70
2018-06-14T08:19:13.604Z,39.20
2018-06-14T08:21:41.089Z,39.20
2018-06-14T08:24:08.226Z,39.10
2018-06-14T08:26:35.366Z,40.20
2018-06-14T08:29:02.506Z,39.20
2018-06-14T08:31:29.606Z,37.50
2018-06-14T08:33:56.719Z,37.00
2018-06-14T08:36:23.830Z,37.30
2018-06-14T08:38:51.214Z,36.60
2018-06-14T08:41:18.347Z,37.70
2018-06-14T08:43:45.500Z,39.00
2018-06-14T08:46:12.653Z,40.20
2018-06-14T08:48:39.917Z,40.80
2018-06-14T08:51:07.027Z,39.90
2018-06-14T08:53:34.643Z,40.70
2018-06-14T08:56:02.155Z,41.40
2018-06-14T08:58:29.274Z,42.10
2018-06-14T09:00:56.383Z,40.90
2018-06-14T09:03:23.487Z,41.30
2018-06-14T09:05:56.886Z,41.20
2018-06-14T09:08:25.117Z,41.90
2018-06-14T09:10:52.306Z,41.20
2018-06-14T09:13:20.020Z,39.90
2018-06-14T09:15:47.496Z,39.80
2018-06-14T09:18:15.207Z,40.00
2018-06-14T09:20:42.489Z,39.90
2018-06-14T09:23:09.586Z,39.80
2018-06-14T09:25:36.835Z,40.50
2018-06-14T09:28:04.016Z,38.70
2018-06-14T09:30:31.168Z,36.60
2018-06-14T09:32:58.290Z,35.30
2018-06-14T09:35:25.606Z,35.20
2018-06-14T09:37:52.811Z,35.40
2018-06-14T09:40:20.023Z,35.20
2018-06-14T09:42:47.273Z,34.30
2018-06-14T09:45:14.784Z,33.40
2018-06-14T09:47:41.898Z,32.50
2018-06-14T09:50:09.026Z,31.50
2018-06-14T09:52:36.178Z,30.00
2018-06-14T09:55:03.342Z,28.30
2018-06-14T09:57:30.723Z,27.90
2018-06-14T09:59:57.851Z,26.70
2018-06-14T10:02:24.999Z,27.50
2018-06-14T10:04:52.278Z,27.90
2018-06-14T10:07:19.447Z,28.10
2018-06-14T10:09:46.628Z,28.20
2018-06-14T10:12:14.620Z,28.10
2018-06-14T10:14:41.751Z,28.00
2018-06-14T10:17:08.854Z,27.80
2018-06-14T10:19:35.987Z,27.50
2018-06-14T10:22:03.134Z,27.20
2018-06-14T10:24:30.487Z,27.10
2018-06-14T10:26:57.594Z,27.10
2018-06-14T10:29:24.810Z,26.90
2018-06-14T10:34:19.293Z,26.90
2018-06-14T10:36:46.627Z,26.90
2018-06-14T10:39:13.750Z,26.70
2018-06-14T10:41:40.879Z,26.90
2018-06-14T10:44:08.034Z,26.30
2018-06-14T10:46:35.213Z,26.20
2018-06-14T10:49:02.463Z,26.10
2018-06-14T10:51:29.622Z,26.10
2018-06-14T10:53:56.818Z,26.10
2018-06-14T10:56:24.069Z,25.80
2018-06-14T10:58:51.256Z,25.50
2018-06-14T11:01:18.519Z,25.20
2018-06-14T11:03:45.643Z,25.60
2018-06-14T11:06:12.766Z,25.90
2018-06-14T11:08:39.878Z,26.20
2018-06-14T11:11:06.998Z,25.90
2018-06-14T11:13:35.039Z,26.00
2018-06-14T11:16:02.200Z,25.80
2018-06-14T11:20:56.514Z,25.30
2018-06-14T11:23:23.720Z,25.20
2018-06-14T11:25:50.948Z,25.20
2018-06-14T11:28:18.186Z,25.50
2018-06-14T11:30:45.407Z,25.70
2018-06-14T11:33:12.537Z,25.60
2018-06-14T11:35:39.738Z,25.50
2018-06-14T11:38:06.879Z,25.50
2018-06-14T11:45:28.414Z,25.60
2018-06-14T11:47:55.635Z,25.60
2018-06-14T11:50:22.931Z,25.30
2018-06-14T11:52:50.146Z,25.50
2018-06-14T11:55:17.385Z,25.50
2018-06-14T11:57:44.510Z,25.70
2018-06-14T12:00:11.865Z,25.80
2018-06-14T12:02:39.002Z,25.90
2018-06-14T12:05:06.131Z,25.70
2018-06-14T12:07:33.266Z,25.40
2018-06-14T12:10:00.400Z,25.30
2018-06-14T12:12:27.531Z,25.40
2018-06-14T12:14:54.697Z,25.70
2018-06-14T12:17:21.867Z,25.60
2018-06-14T12:19:49.046Z,25.50
2018-06-14T12:24:43.471Z,25.10
2018-06-14T12:27:10.587Z,24.80
2018-06-14T12:29:37.735Z,24.70
2018-06-14T12:32:04.865Z,24.60
2018-06-14T12:34:32.047Z,24.50
2018-06-14T12:36:59.202Z,24.50
2018-06-14T12:39:26.354Z,24.50
2018-06-14T12:41:53.629Z,24.60
2018-06-14T12:44:20.932Z,24.60
2018-06-14T12:46:48.130Z,24.60
2018-06-14T12:49:15.388Z,24.40
2018-06-14T12:51:42.827Z,24.20
2018-06-14T12:54:10.048Z,24.30
2018-06-14T12:56:37.257Z,24.40
2018-06-14T12:59:04.403Z,24.40
2018-06-14T13:01:31.527Z,24.50
2018-06-14T13:03:58.683Z,24.30
2018-06-14T13:06:25.829Z,24.40
2018-06-14T13:08:53.074Z,24.60
2018-06-14T13:11:20.318Z,24.80
2018-06-14T13:13:48.504Z,24.90
2018-06-14T13:16:15.681Z,24.70
2018-06-14T13:18:42.924Z,24.40
2018-06-14T13:21:10.088Z,24.40
2018-06-14T13:23:37.384Z,24.60
2018-06-14T13:26:04.491Z,24.70
2018-06-14T13:28:31.654Z,24.80
2018-06-14T13:30:58.858Z,24.80
2018-06-14T13:33:26.038Z,24.80
2018-06-14T13:35:53.281Z,24.80
2018-06-14T13:38:20.445Z,24.90
2018-06-14T13:40:47.783Z,25.00
2018-06-14T13:43:14.902Z,25.00
2018-06-14T13:45:41.996Z,25.10
2018-06-14T13:48:09.150Z,25.00
2018-06-14T13:50:36.327Z,24.90
2018-06-14T13:53:03.564Z,24.70
2018-06-14T13:55:30.765Z,24.40
2018-06-14T13:57:57.862Z,23.90
2018-06-14T14:00:24.982Z,24.00
2018-06-14T14:02:52.214Z,24.20
2018-06-14T14:05:19.482Z,24.60
2018-06-14T14:07:46.716Z,24.80
2018-06-14T14:10:13.873Z,25.10
2018-06-14T14:12:40.984Z,25.00
2018-06-14T14:15:08.143Z,24.90
2018-06-14T14:17:35.317Z,24.90
2018-06-14T14:20:02.475Z,24.90
2018-06-14T14:22:29.606Z,25.00
2018-06-14T14:24:56.911Z,24.80
2018-06-14T14:27:24.115Z,24.80
2018-06-14T14:29:51.325Z,25.10
2018-06-14T14:32:18.575Z,25.20
2018-06-14T14:34:45.749Z,25.30
2018-06-14T14:37:13.059Z,25.20
2018-06-14T14:39:40.056Z,25.10
2018-06-14T14:42:07.227Z,24.60
2018-06-14T14:44:34.372Z,24.40
2018-06-14T14:47:01.494Z,23.90
2018-06-14T14:49:28.650Z,24.20
2018-06-14T14:51:55.911Z,24.60
2018-06-14T14:54:23.240Z,24.70
2018-06-14T14:56:50.672Z,24.80
2018-06-14T14:59:17.987Z,24.70
2018-06-14T15:01:45.157Z,24.60
2018-06-14T15:04:12.288Z,24.60
2018-06-14T15:06:39.479Z,24.60
2018-06-14T15:09:07.470Z,24.60
2018-06-14T15:11:34.598Z,24.80
2018-06-14T15:14:01.758Z,25.00
2018-06-14T15:16:28.906Z,25.30
2018-06-14T15:18:56.140Z,25.80
2018-06-14T15:21:23.327Z,26.00
2018-06-14T15:23:50.534Z,26.20
2018-06-14T15:26:17.825Z,26.00
2018-06-14T15:28:44.995Z,26.00
2018-06-14T15:31:12.133Z,26.00
2018-06-14T15:33:39.266Z,26.00
2018-06-14T15:38:33.593Z,25.50
2018-06-14T15:41:00.791Z,25.50
2018-06-14T15:43:28.020Z,25.50
2018-06-14T15:45:55.124Z,25.50
2018-06-14T15:48:22.421Z,25.30
2018-06-14T15:50:49.617Z,25.20
2018-06-14T15:53:16.948Z,25.10
2018-06-14T15:56:08.044Z,25.10
2018-06-14T15:58:35.264Z,25.10
2018-06-14T16:01:02.397Z,25.00
2018-06-14T16:03:29.589Z,25.10
2018-06-14T16:08:24.037Z,25.00
2018-06-14T16:10:51.424Z,24.90
2018-06-14T16:13:19.532Z,24.80
2018-06-14T16:15:46.811Z,24.80
2018-06-14T16:18:14.104Z,24.70
2018-06-14T16:20:41.280Z,24.60
2018-06-14T16:23:08.442Z,24.60
2018-06-14T16:25:35.596Z,24.60
2018-06-14T16:28:02.796Z,24.60
2018-06-14T16:30:29.979Z,24.60
2018-06-14T16:32:57.158Z,24.60
2018-06-14T16:35:24.415Z,24.60
2018-06-14T16:37:51.666Z,24.70
2018-06-14T16:40:18.940Z,24.80
2018-06-14T16:42:46.118Z,24.70
2018-06-14T16:45:13.335Z,24.90
2018-06-14T16:47:41.034Z,25.00
2018-06-14T16:50:08.175Z,25.00
2018-06-14T16:52:35.568Z,25.10
2018-06-14T16:55:02.792Z,25.10
2018-06-14T16:57:29.946Z,25.00
2018-06-14T16:59:57.067Z,25.00
2018-06-14T17:02:24.280Z,24.90
2018-06-14T17:04:51.785Z,24.80
2018-06-14T17:09:46.430Z,24.60
2018-06-14T17:12:13.630Z,24.50
2018-06-14T17:14:40.764Z,24.40
2018-06-14T17:17:07.994Z,24.40
2018-06-14T17:19:35.184Z,24.40
2018-06-14T17:22:02.349Z,24.30
2018-06-14T17:24:29.564Z,24.20
2018-06-14T17:26:56.898Z,24.00
2018-06-14T17:29:30.854Z,23.90
2018-06-14T17:31:58.015Z,23.80
2018-06-14T17:34:25.168Z,23.70
2018-06-14T17:36:52.418Z,23.60
2018-06-14T17:39:19.658Z,23.50
2018-06-14T17:41:46.823Z,23.50
2018-06-14T17:44:13.983Z,23.40
2018-06-14T17:46:41.111Z,23.20
2018-06-14T17:49:08.214Z,23.30
2018-06-14T17:51:35.364Z,23.30
2018-06-14T17:54:02.511Z,23.20
2018-06-14T17:56:29.652Z,23.20
2018-06-14T17:58:56.967Z,23.10
2018-06-14T18:01:24.330Z,23.00
2018-06-14T18:03:52.088Z,23.00
2018-06-14T18:06:19.365Z,22.90
2018-06-14T18:08:46.539Z,22.90
2018-06-14T18:11:14.021Z,22.80
2018-06-14T18:13:41.159Z,22.80
2018-06-14T18:16:08.279Z,22.70
2018-06-14T18:18:35.438Z,22.60
2018-06-14T18:21:02.575Z,22.40
2018-06-14T18:23:29.739Z,22.20
2018-06-14T18:25:56.952Z,22.00
2018-06-14T18:28:24.101Z,22.00
2018-06-14T18:30:51.273Z,21.90
2018-06-14T18:33:18.492Z,21.70
2018-06-14T18:35:45.855Z,21.70
2018-06-14T18:38:12.997Z,21.60
2018-06-14T18:40:40.149Z,21.60
2018-06-14T18:43:07.248Z,21.40
2018-06-14T18:45:34.623Z,21.40
2018-06-14T18:48:01.765Z,21.00
2018-06-14T18:50:28.946Z,21.00
2018-06-14T18:52:56.367Z,21.00
2018-06-14T18:55:23.627Z,20.90
2018-06-14T18:57:50.907Z,20.90
2018-06-14T19:00:18.170Z,20.90
2018-06-14T19:02:45.307Z,20.90
2018-06-14T19:05:12.650Z,20.80
2018-06-14T19:07:39.828Z,20.70
2018-06-14T19:12:34.126Z,20.60
2018-06-14T19:15:01.309Z,20.50
2018-06-14T19:17:28.523Z,20.50
2018-06-14T19:19:55.842Z,20.40
2018-06-14T19:22:23.083Z,20.50
2018-06-14T19:24:50.463Z,20.50
2018-06-14T19:27:17.729Z,20.50
2018-06-14T19:29:44.880Z,20.50
2018-06-14T19:32:12.078Z,20.20
2018-06-14T19:34:39.218Z,20.10
2018-06-14T19:37:06.335Z,20.00
2018-06-14T19:39:33.511Z,20.00
2018-06-14T19:42:00.836Z,20.00
2018-06-14T19:44:27.976Z,20.00
2018-06-14T19:46:55.233Z,20.00
2018-06-14T19:49:24.778Z,19.90
2018-06-14T19:51:52.751Z,19.70
2018-06-14T19:54:19.902Z,19.80
2018-06-14T19:56:47.240Z,19.70
2018-06-14T19:59:14.390Z,19.70
2018-06-14T20:01:41.535Z,19.80
2018-06-14T20:04:08.667Z,19.70
2018-06-14T20:06:35.798Z,19.40
2018-06-14T20:09:04.593Z,19.20
2018-06-14T20:11:31.710Z,19.20
2018-06-14T20:13:58.887Z,19.10
2018-06-14T20:16:26.008Z,19.00
2018-06-14T20:18:53.550Z,19.00
2018-06-14T20:21:20.837Z,18.90
2018-06-14T20:23:48.141Z,18.80
2018-06-14T20:26:15.287Z,18.60
2018-06-14T20:28:42.433Z,18.50
2018-06-14T20:31:09.677Z,18.30
2018-06-14T20:33:36.810Z,18.20
2018-06-14T20:36:03.961Z,18.10
2018-06-14T20:40:58.226Z,17.80
2018-06-14T20:43:25.354Z,17.80
2018-06-14T20:45:52.459Z,17.60
2018-06-14T20:48:19.626Z,17.60
2018-06-14T20:50:46.809Z,17.40
2018-06-14T20:53:14.776Z,17.50
2018-06-14T20:55:42.045Z,17.50
2018-06-14T20:58:09.242Z,17.30
2018-06-14T21:00:36.371Z,17.30
2018-06-14T21:03:03.501Z,17.30
2018-06-14T21:05:30.718Z,17.30
2018-06-14T21:07:57.828Z,17.40
2018-06-14T21:10:24.972Z,17.30
2018-06-14T21:12:52.160Z,17.40
2018-06-14T21:15:19.419Z,17.40
2018-06-14T21:17:46.563Z,17.30
2018-06-14T21:20:13.721Z,17.40
2018-06-14T21:22:40.850Z,17.40
2018-06-14T21:25:07.999Z,17.30
2018-06-14T21:27:35.132Z,17.30
2018-06-14T21:30:02.295Z,17.30
2018-06-14T21:32:29.414Z,17.40
2018-06-14T21:35:03.316Z,17.50
2018-06-14T21:37:30.504Z,17.50
2018-06-14T21:39:57.683Z,17.80
2018-06-14T21:42:24.889Z,17.80
2018-06-14T21:44:52.148Z,17.70
2018-06-14T21:47:19.335Z,17.70
2018-06-14T21:49:46.503Z,17.70
2018-06-14T21:52:13.693Z,17.70
2018-06-14T21:54:40.821Z,17.90
2018-06-14T21:57:07.962Z,17.90
2018-06-14T21:59:35.080Z,17.90
2018-06-14T22:02:02.211Z,18.00
2018-06-14T22:04:29.343Z,17.90
2018-06-14T22:06:56.470Z,17.90
2018-06-14T22:09:23.638Z,17.90
2018-06-14T22:11:50.829Z,17.90
2018-06-14T22:14:18.050Z,17.90
2018-06-14T22:16:45.170Z,17.90
2018-06-14T22:19:12.279Z,17.90
2018-06-14T22:21:39.430Z,17.80
2018-06-14T22:24:06.558Z,17.90
2018-06-14T22:26:34.524Z,17.90
2018-06-14T22:29:01.662Z,17.90
2018-06-14T22:34:07.653Z,17.90
2018-06-14T22:36:34.835Z,17.80
2018-06-14T22:39:02.038Z,17.80
2018-06-14T22:41:29.217Z,17.80
2018-06-14T22:43:56.359Z,17.70
2018-06-14T22:46:23.479Z,17.80
2018-06-14T22:48:50.663Z,17.80
2018-06-14T22:53:46.462Z,17.70
2018-06-14T22:56:13.837Z,17.80
2018-06-14T22:58:41.170Z,17.80
2018-06-14T23:01:24.818Z,17.90
2018-06-14T23:03:51.969Z,17.80
2018-06-14T23:06:19.175Z,17.80
2018-06-14T23:08:46.339Z,17.90
2018-06-14T23:11:19.018Z,17.80
2018-06-14T23:13:46.142Z,17.80
2018-06-14T23:16:13.478Z,17.80
2018-06-14T23:18:40.766Z,17.80
2018-06-14T23:21:07.956Z,17.70
2018-06-14T23:23:35.164Z,17.80
2018-06-14T23:26:02.560Z,17.80
2018-06-14T23:28:29.701Z,17.80
2018-06-14T23:30:56.819Z,17.70
2018-06-14T23:33:23.944Z,17.60
2018-06-14T23:38:18.254Z,17.50
2018-06-14T23:40:45.419Z,17.50
2018-06-14T23:43:12.532Z,17.60
2018-06-14T23:45:39.706Z,17.40
2018-06-14T23:48:06.976Z,17.30
2018-06-14T23:50:34.226Z,17.30
2018-06-14T23:53:01.367Z,17.30
2018-06-14T23:55:28.499Z,17.10
2018-06-14T23:57:55.674Z,17.20
